sensor_id;sensor_type;location;lat;lon;timestamp;temperature;humidity
11762;DHT22;5938;47.098;15.474;2024-03-25T00:02:00;0.00;99.90
11762;DHT22;5938;47.098;15.474;2024-03-25T00:06:03;0.10;99.90
11762;DHT22;5938;47.098;15.474;2024-03-25T00:10:06;-0.10;99.90
11762;DHT22;5938;47.098;15.474;2024-03-25T00:14:11;-0.10;99.90
11762;DHT22;5938;47.098;15.474;2024-03-25T00:18:13;0.00;99.90
11762;DHT22;5938;47.098;15.474;2024-03-25T00:22:15;0.00;99.90
11762;DHT22;5938;47.098;15.474;2024-03-25T00:26:18;0.00;99.90
11762;DHT22;5938;47.098;15.474;2024-03-25T00:30:22;-0.10;99.90
11762;DHT22;5938;47.098;15.474;2024-03-25T00:34:25;-0.10;99.90
11762;DHT22;5938;47.098;15.474;2024-03-25T00:38:28;0.00;99.90
11762;DHT22;5938;47.098;15.474;2024-03-25T00:42:29;0.00;99.90
11762;DHT22;5938;47.098;15.474;2024-03-25T00:46:33;0.40;99.90
11762;DHT22;5938;47.098;15.474;2024-03-25T00:50:35;0.20;99.90
11762;DHT22;5938;47.098;15.474;2024-03-25T00:54:38;0.40;99.90
11762;DHT22;5938;47.098;15.474;2024-03-25T00:58:40;0.30;99.90
11762;DHT22;5938;47.098;15.474;2024-03-25T01:02:44;0.40;99.90
11762;DHT22;5938;47.098;15.474;2024-03-25T01:06:45;0.30;99.90
11762;DHT22;5938;47.098;15.474;2024-03-25T01:10:48;0.50;99.90
11762;DHT22;5938;47.098;15.474;2024-03-25T01:14:52;0.30;99.90
11762;DHT22;5938;47.098;15.474;2024-03-25T01:18:55;-0.10;99.90
11762;DHT22;5938;47.098;15.474;2024-03-25T01:22:59;0.30;99.90
11762;DHT22;5938;47.098;15.474;2024-03-25T01:27:01;0.00;99.90
11762;DHT22;5938;47.098;15.474;2024-03-25T01:31:04;-0.10;99.90
11762;DHT22;5938;47.098;15.474;2024-03-25T01:35:08;-0.10;99.90
11762;DHT22;5938;47.098;15.474;2024-03-25T01:39:12;0.00;99.90
11762;DHT22;5938;47.098;15.474;2024-03-25T01:43:14;0.10;99.90
11762;DHT22;5938;47.098;15.474;2024-03-25T01:47:17;0.20;99.90
11762;DHT22;5938;47.098;15.474;2024-03-25T01:51:22;0.10;99.90
11762;DHT22;5938;47.098;15.474;2024-03-25T01:55:27;0.20;99.90
11762;DHT22;5938;47.098;15.474;2024-03-25T01:59:30;0.30;99.90
11762;DHT22;5938;47.098;15.474;2024-03-25T02:03:33;0.20;99.90
11762;DHT22;5938;47.098;15.474;2024-03-25T02:07:37;0.20;99.90
11762;DHT22;5938;47.098;15.474;2024-03-25T02:11:40;-0.10;99.90
11762;DHT22;5938;47.098;15.474;2024-03-25T02:15:43;-0.30;99.90
11762;DHT22;5938;47.098;15.474;2024-03-25T02:19:46;-0.20;99.90
11762;DHT22;5938;47.098;15.474;2024-03-25T02:23:53;-0.40;99.90
11762;DHT22;5938;47.098;15.474;2024-03-25T02:27:59;-0.40;99.90
11762;DHT22;5938;47.098;15.474;2024-03-25T02:32:02;-0.40;99.90
11762;DHT22;5938;47.098;15.474;2024-03-25T02:36:05;-0.60;99.90
11762;DHT22;5938;47.098;15.474;2024-03-25T02:40:08;-0.50;99.90
11762;DHT22;5938;47.098;15.474;2024-03-25T02:44:14;-0.40;99.90
11762;DHT22;5938;47.098;15.474;2024-03-25T02:48:16;-0.70;99.90
11762;DHT22;5938;47.098;15.474;2024-03-25T02:52:19;-1.10;99.90
11762;DHT22;5938;47.098;15.474;2024-03-25T02:56:21;-0.70;99.90
11762;DHT22;5938;47.098;15.474;2024-03-25T03:00:24;-0.30;99.90
11762;DHT22;5938;47.098;15.474;2024-03-25T03:04:26;-0.60;99.90
11762;DHT22;5938;47.098;15.474;2024-03-25T03:08:29;-0.40;99.90
11762;DHT22;5938;47.098;15.474;2024-03-25T03:12:31;-0.80;99.90
11762;DHT22;5938;47.098;15.474;2024-03-25T03:16:37;-0.20;99.90
11762;DHT22;5938;47.098;15.474;2024-03-25T03:20:39;-0.50;99.90
11762;DHT22;5938;47.098;15.474;2024-03-25T03:24:42;-0.70;99.90
11762;DHT22;5938;47.098;15.474;2024-03-25T03:28:44;-0.40;99.90
11762;DHT22;5938;47.098;15.474;2024-03-25T03:32:48;-0.60;99.90
11762;DHT22;5938;47.098;15.474;2024-03-25T03:36:50;-0.60;99.90
11762;DHT22;5938;47.098;15.474;2024-03-25T03:40:57;-1.00;99.90
11762;DHT22;5938;47.098;15.474;2024-03-25T03:44:59;-0.70;99.90
11762;DHT22;5938;47.098;15.474;2024-03-25T03:49:03;-0.60;99.90
11762;DHT22;5938;47.098;15.474;2024-03-25T03:53:06;-0.70;99.90
11762;DHT22;5938;47.098;15.474;2024-03-25T03:57:08;-0.60;99.90
11762;DHT22;5938;47.098;15.474;2024-03-25T04:01:15;-0.80;99.90
11762;DHT22;5938;47.098;15.474;2024-03-25T04:05:19;-0.80;99.90
11762;DHT22;5938;47.098;15.474;2024-03-25T04:09:21;-1.00;99.90
11762;DHT22;5938;47.098;15.474;2024-03-25T04:13:24;-0.80;99.90
11762;DHT22;5938;47.098;15.474;2024-03-25T04:17:27;-0.90;99.90
11762;DHT22;5938;47.098;15.474;2024-03-25T04:21:30;-1.00;99.90
11762;DHT22;5938;47.098;15.474;2024-03-25T04:25:33;-0.90;99.90
11762;DHT22;5938;47.098;15.474;2024-03-25T04:29:38;-0.90;99.90
11762;DHT22;5938;47.098;15.474;2024-03-25T04:33:41;-0.90;99.90
11762;DHT22;5938;47.098;15.474;2024-03-25T04:37:45;-0.80;99.90
11762;DHT22;5938;47.098;15.474;2024-03-25T04:41:47;-0.50;99.90
11762;DHT22;5938;47.098;15.474;2024-03-25T04:45:48;-0.50;99.90
11762;DHT22;5938;47.098;15.474;2024-03-25T04:49:50;-0.30;99.90
11762;DHT22;5938;47.098;15.474;2024-03-25T04:53:53;-0.20;99.90
11762;DHT22;5938;47.098;15.474;2024-03-25T04:57:54;0.00;99.90
11762;DHT22;5938;47.098;15.474;2024-03-25T05:01:55;0.10;99.90
11762;DHT22;5938;47.098;15.474;2024-03-25T05:05:57;0.20;99.90
11762;DHT22;5938;47.098;15.474;2024-03-25T05:10:00;0.30;99.90
11762;DHT22;5938;47.098;15.474;2024-03-25T05:14:02;0.40;99.90
11762;DHT22;5938;47.098;15.474;2024-03-25T05:18:04;0.40;99.90
11762;DHT22;5938;47.098;15.474;2024-03-25T05:22:06;0.60;99.90
11762;DHT22;5938;47.098;15.474;2024-03-25T05:26:09;0.70;99.90
11762;DHT22;5938;47.098;15.474;2024-03-25T05:30:11;0.70;99.90
11762;DHT22;5938;47.098;15.474;2024-03-25T05:34:13;0.80;99.90
11762;DHT22;5938;47.098;15.474;2024-03-25T05:38:14;0.90;99.90
11762;DHT22;5938;47.098;15.474;2024-03-25T05:42:17;1.00;99.90
11762;DHT22;5938;47.098;15.474;2024-03-25T05:46:19;1.10;99.90
11762;DHT22;5938;47.098;15.474;2024-03-25T05:50:20;1.20;99.90
11762;DHT22;5938;47.098;15.474;2024-03-25T05:54:22;1.40;99.90
11762;DHT22;5938;47.098;15.474;2024-03-25T05:58:25;1.50;99.90
11762;DHT22;5938;47.098;15.474;2024-03-25T06:02:26;1.70;99.90
11762;DHT22;5938;47.098;15.474;2024-03-25T06:06:27;1.70;99.90
11762;DHT22;5938;47.098;15.474;2024-03-25T06:10:29;1.90;99.90
11762;DHT22;5938;47.098;15.474;2024-03-25T06:14:32;1.90;99.90
11762;DHT22;5938;47.098;15.474;2024-03-25T06:18:33;2.00;99.90
11762;DHT22;5938;47.098;15.474;2024-03-25T06:22:34;2.40;99.90
11762;DHT22;5938;47.098;15.474;2024-03-25T06:26:36;2.30;99.90
11762;DHT22;5938;47.098;15.474;2024-03-25T06:30:39;2.10;99.90
11762;DHT22;5938;47.098;15.474;2024-03-25T06:35:00;2.00;99.90
11762;DHT22;5938;47.098;15.474;2024-03-25T06:39:01;1.90;99.90
11762;DHT22;5938;47.098;15.474;2024-03-25T06:43:03;1.80;99.90
11762;DHT22;5938;47.098;15.474;2024-03-25T06:47:06;1.70;99.90
11762;DHT22;5938;47.098;15.474;2024-03-25T06:51:08;1.80;99.90
11762;DHT22;5938;47.098;15.474;2024-03-25T06:55:09;1.90;99.90
11762;DHT22;5938;47.098;15.474;2024-03-25T06:59:11;2.00;99.90
11762;DHT22;5938;47.098;15.474;2024-03-25T07:03:14;2.20;99.90
11762;DHT22;5938;47.098;15.474;2024-03-25T07:07:16;2.60;99.90
11762;DHT22;5938;47.098;15.474;2024-03-25T07:11:18;2.90;99.90
11762;DHT22;5938;47.098;15.474;2024-03-25T07:15:20;3.30;99.90
11762;DHT22;5938;47.098;15.474;2024-03-25T07:19:23;3.80;99.90
11762;DHT22;5938;47.098;15.474;2024-03-25T07:23:25;4.30;99.90
11762;DHT22;5938;47.098;15.474;2024-03-25T07:27:28;5.00;99.90
11762;DHT22;5938;47.098;15.474;2024-03-25T07:31:30;5.40;99.90
11762;DHT22;5938;47.098;15.474;2024-03-25T07:35:33;5.60;99.90
11762;DHT22;5938;47.098;15.474;2024-03-25T07:39:35;6.00;98.50
11762;DHT22;5938;47.098;15.474;2024-03-25T07:43:36;6.30;97.50
11762;DHT22;5938;47.098;15.474;2024-03-25T07:47:38;6.40;96.60
11762;DHT22;5938;47.098;15.474;2024-03-25T07:51:42;6.30;95.40
11762;DHT22;5938;47.098;15.474;2024-03-25T07:55:44;6.50;94.50
11762;DHT22;5938;47.098;15.474;2024-03-25T07:59:45;7.00;92.80
11762;DHT22;5938;47.098;15.474;2024-03-25T08:03:47;7.40;91.50
11762;DHT22;5938;47.098;15.474;2024-03-25T08:07:50;7.80;93.50
11762;DHT22;5938;47.098;15.474;2024-03-25T08:11:51;8.00;93.80
11762;DHT22;5938;47.098;15.474;2024-03-25T08:15:54;8.20;90.80
11762;DHT22;5938;47.098;15.474;2024-03-25T08:19:56;8.40;90.30
11762;DHT22;5938;47.098;15.474;2024-03-25T08:23:59;8.60;90.40
11762;DHT22;5938;47.098;15.474;2024-03-25T08:28:00;9.30;88.40
11762;DHT22;5938;47.098;15.474;2024-03-25T08:32:02;9.70;88.60
11762;DHT22;5938;47.098;15.474;2024-03-25T08:36:04;9.60;85.20
11762;DHT22;5938;47.098;15.474;2024-03-25T08:40:09;9.60;84.10
11762;DHT22;5938;47.098;15.474;2024-03-25T08:44:10;9.80;83.30
11762;DHT22;5938;47.098;15.474;2024-03-25T08:48:12;9.60;84.90
11762;DHT22;5938;47.098;15.474;2024-03-25T08:52:13;9.50;84.50
11762;DHT22;5938;47.098;15.474;2024-03-25T08:56:16;10.70;83.10
11762;DHT22;5938;47.098;15.474;2024-03-25T09:00:18;12.90;75.90
11762;DHT22;5938;47.098;15.474;2024-03-25T09:04:20;14.70;68.00
11762;DHT22;5938;47.098;15.474;2024-03-25T09:08:21;15.80;66.20
11762;DHT22;5938;47.098;15.474;2024-03-25T09:12:24;16.70;61.80
11762;DHT22;5938;47.098;15.474;2024-03-25T09:16:25;17.80;58.00
11762;DHT22;5938;47.098;15.474;2024-03-25T09:20:27;17.70;57.80
11762;DHT22;5938;47.098;15.474;2024-03-25T09:24:29;17.40;56.10
11762;DHT22;5938;47.098;15.474;2024-03-25T09:28:32;18.00;57.10
11762;DHT22;5938;47.098;15.474;2024-03-25T09:32:33;18.20;54.50
11762;DHT22;5938;47.098;15.474;2024-03-25T09:36:35;18.90;56.00
11762;DHT22;5938;47.098;15.474;2024-03-25T09:44:40;19.30;53.90
11762;DHT22;5938;47.098;15.474;2024-03-25T09:48:42;19.70;52.90
11762;DHT22;5938;47.098;15.474;2024-03-25T09:52:43;18.90;50.40
11762;DHT22;5938;47.098;15.474;2024-03-25T09:56:45;18.80;49.50
11762;DHT22;5938;47.098;15.474;2024-03-25T10:00:48;18.10;52.80
11762;DHT22;5938;47.098;15.474;2024-03-25T10:04:50;16.80;55.90
11762;DHT22;5938;47.098;15.474;2024-03-25T10:08:53;20.10;50.90
11762;DHT22;5938;47.098;15.474;2024-03-25T10:12:55;19.20;50.50
11762;DHT22;5938;47.098;15.474;2024-03-25T10:16:58;19.80;49.60
11762;DHT22;5938;47.098;15.474;2024-03-25T10:21:00;19.30;49.40
11762;DHT22;5938;47.098;15.474;2024-03-25T10:25:01;18.70;53.40
11762;DHT22;5938;47.098;15.474;2024-03-25T10:29:04;19.40;48.50
11762;DHT22;5938;47.098;15.474;2024-03-25T10:33:07;20.30;49.30
11762;DHT22;5938;47.098;15.474;2024-03-25T10:37:10;20.80;47.10
11762;DHT22;5938;47.098;15.474;2024-03-25T10:41:13;20.30;47.50
11762;DHT22;5938;47.098;15.474;2024-03-25T10:45:17;18.30;47.50
11762;DHT22;5938;47.098;15.474;2024-03-25T10:49:28;18.90;44.70
11762;DHT22;5938;47.098;15.474;2024-03-25T10:53:35;19.00;45.90
11762;DHT22;5938;47.098;15.474;2024-03-25T10:57:37;17.90;47.20
11762;DHT22;5938;47.098;15.474;2024-03-25T11:01:39;16.80;47.50
11762;DHT22;5938;47.098;15.474;2024-03-25T11:05:43;17.80;45.50
11762;DHT22;5938;47.098;15.474;2024-03-25T11:09:44;18.80;42.40
11762;DHT22;5938;47.098;15.474;2024-03-25T11:13:47;18.70;42.60
11762;DHT22;5938;47.098;15.474;2024-03-25T11:17:49;19.80;43.30
11762;DHT22;5938;47.098;15.474;2024-03-25T11:21:52;21.40;39.00
11762;DHT22;5938;47.098;15.474;2024-03-25T11:25:55;21.80;39.40
11762;DHT22;5938;47.098;15.474;2024-03-25T11:29:58;24.00;37.80
11762;DHT22;5938;47.098;15.474;2024-03-25T11:34:03;24.70;36.70
11762;DHT22;5938;47.098;15.474;2024-03-25T11:38:06;22.70;37.80
11762;DHT22;5938;47.098;15.474;2024-03-25T11:42:08;22.40;36.80
11762;DHT22;5938;47.098;15.474;2024-03-25T11:46:16;23.10;37.30
11762;DHT22;5938;47.098;15.474;2024-03-25T11:50:19;22.30;39.80
11762;DHT22;5938;47.098;15.474;2024-03-25T11:54:22;21.70;37.70
11762;DHT22;5938;47.098;15.474;2024-03-25T11:58:24;24.10;35.70
11762;DHT22;5938;47.098;15.474;2024-03-25T12:02:26;24.30;35.40
11762;DHT22;5938;47.098;15.474;2024-03-25T12:06:27;21.60;39.90
11762;DHT22;5938;47.098;15.474;2024-03-25T12:10:30;22.60;39.30
11762;DHT22;5938;47.098;15.474;2024-03-25T12:14:51;24.40;35.90
11762;DHT22;5938;47.098;15.474;2024-03-25T12:18:52;25.20;33.50
11762;DHT22;5938;47.098;15.474;2024-03-25T12:22:54;26.40;33.60
11762;DHT22;5938;47.098;15.474;2024-03-25T12:26:57;25.40;35.10
11762;DHT22;5938;47.098;15.474;2024-03-25T12:30:59;23.60;35.30
11762;DHT22;5938;47.098;15.474;2024-03-25T12:35:00;21.80;35.60
11762;DHT22;5938;47.098;15.474;2024-03-25T12:39:02;23.10;37.90
11762;DHT22;5938;47.098;15.474;2024-03-25T12:43:05;24.10;37.20
11762;DHT22;5938;47.098;15.474;2024-03-25T12:47:07;22.20;39.40
11762;DHT22;5938;47.098;15.474;2024-03-25T12:51:13;20.10;42.60
11762;DHT22;5938;47.098;15.474;2024-03-25T12:55:15;17.60;46.50
11762;DHT22;5938;47.098;15.474;2024-03-25T12:59:19;16.10;45.60
11762;DHT22;5938;47.098;15.474;2024-03-25T13:03:20;15.30;48.70
11762;DHT22;5938;47.098;15.474;2024-03-25T13:07:21;15.10;49.60
11762;DHT22;5938;47.098;15.474;2024-03-25T13:11:23;14.80;49.90
11762;DHT22;5938;47.098;15.474;2024-03-25T13:15:26;15.20;50.90
11762;DHT22;5938;47.098;15.474;2024-03-25T13:19:27;16.10;51.00
11762;DHT22;5938;47.098;15.474;2024-03-25T13:23:29;16.10;48.30
11762;DHT22;5938;47.098;15.474;2024-03-25T13:27:30;15.30;50.30
11762;DHT22;5938;47.098;15.474;2024-03-25T13:31:33;19.50;46.10
11762;DHT22;5938;47.098;15.474;2024-03-25T13:35:35;20.80;41.80
11762;DHT22;5938;47.098;15.474;2024-03-25T13:39:36;23.80;38.90
11762;DHT22;5938;47.098;15.474;2024-03-25T13:43:42;27.00;34.00
11762;DHT22;5938;47.098;15.474;2024-03-25T13:47:45;26.30;31.40
11762;DHT22;5938;47.098;15.474;2024-03-25T13:51:47;26.90;33.20
11762;DHT22;5938;47.098;15.474;2024-03-25T13:55:48;29.50;31.00
11762;DHT22;5938;47.098;15.474;2024-03-25T13:59:50;30.90;28.10
11762;DHT22;5938;47.098;15.474;2024-03-25T14:03:54;29.90;27.70
11762;DHT22;5938;47.098;15.474;2024-03-25T14:07:55;26.00;31.20
11762;DHT22;5938;47.098;15.474;2024-03-25T14:11:57;20.90;38.60
11762;DHT22;5938;47.098;15.474;2024-03-25T14:15:58;18.60;40.70
11762;DHT22;5938;47.098;15.474;2024-03-25T14:20:01;19.10;41.80
11762;DHT22;5938;47.098;15.474;2024-03-25T14:24:05;20.00;41.30
11762;DHT22;5938;47.098;15.474;2024-03-25T14:28:06;22.20;38.10
11762;DHT22;5938;47.098;15.474;2024-03-25T14:32:08;22.70;40.10
11762;DHT22;5938;47.098;15.474;2024-03-25T14:36:11;23.30;36.90
11762;DHT22;5938;47.098;15.474;2024-03-25T14:40:12;22.70;34.60
11762;DHT22;5938;47.098;15.474;2024-03-25T14:44:14;22.60;34.40
11762;DHT22;5938;47.098;15.474;2024-03-25T14:48:16;24.80;35.20
11762;DHT22;5938;47.098;15.474;2024-03-25T14:52:18;25.60;32.10
11762;DHT22;5938;47.098;15.474;2024-03-25T14:56:20;22.20;35.80
11762;DHT22;5938;47.098;15.474;2024-03-25T15:00:22;21.30;39.00
11762;DHT22;5938;47.098;15.474;2024-03-25T15:04:23;19.20;39.70
11762;DHT22;5938;47.098;15.474;2024-03-25T15:08:26;17.80;44.30
11762;DHT22;5938;47.098;15.474;2024-03-25T15:12:29;16.30;45.70
11762;DHT22;5938;47.098;15.474;2024-03-25T15:16:31;15.20;45.90
11762;DHT22;5938;47.098;15.474;2024-03-25T15:20:35;14.80;48.70
11762;DHT22;5938;47.098;15.474;2024-03-25T15:24:38;14.30;49.40
11762;DHT22;5938;47.098;15.474;2024-03-25T15:28:40;13.90;49.60
11762;DHT22;5938;47.098;15.474;2024-03-25T15:32:42;13.70;51.80
11762;DHT22;5938;47.098;15.474;2024-03-25T15:36:44;13.60;53.20
11762;DHT22;5938;47.098;15.474;2024-03-25T15:40:48;13.50;50.80
11762;DHT22;5938;47.098;15.474;2024-03-25T15:44:51;13.30;52.00
11762;DHT22;5938;47.098;15.474;2024-03-25T15:48:53;13.50;54.10
11762;DHT22;5938;47.098;15.474;2024-03-25T15:52:55;13.70;58.30
11762;DHT22;5938;47.098;15.474;2024-03-25T15:56:58;14.00;54.50
11762;DHT22;5938;47.098;15.474;2024-03-25T16:00:59;13.90;52.50
11762;DHT22;5938;47.098;15.474;2024-03-25T16:05:01;13.80;52.50
11762;DHT22;5938;47.098;15.474;2024-03-25T16:09:02;13.90;54.40
11762;DHT22;5938;47.098;15.474;2024-03-25T16:13:05;13.90;54.40
11762;DHT22;5938;47.098;15.474;2024-03-25T16:17:07;13.90;51.70
11762;DHT22;5938;47.098;15.474;2024-03-25T16:21:13;13.70;54.30
11762;DHT22;5938;47.098;15.474;2024-03-25T16:25:15;13.50;54.10
11762;DHT22;5938;47.098;15.474;2024-03-25T16:29:18;13.00;53.60
11762;DHT22;5938;47.098;15.474;2024-03-25T16:33:19;12.70;54.00
11762;DHT22;5938;47.098;15.474;2024-03-25T16:37:21;12.40;54.70
11762;DHT22;5938;47.098;15.474;2024-03-25T16:41:22;12.10;58.10
11762;DHT22;5938;47.098;15.474;2024-03-25T16:45:25;11.80;63.20
11762;DHT22;5938;47.098;15.474;2024-03-25T16:49:27;11.40;65.60
11762;DHT22;5938;47.098;15.474;2024-03-25T16:53:29;11.00;70.00
11762;DHT22;5938;47.098;15.474;2024-03-25T16:57:30;10.60;69.80
11762;DHT22;5938;47.098;15.474;2024-03-25T17:01:33;10.30;71.10
11762;DHT22;5938;47.098;15.474;2024-03-25T17:05:35;10.00;72.10
11762;DHT22;5938;47.098;15.474;2024-03-25T17:09:37;9.80;74.30
11762;DHT22;5938;47.098;15.474;2024-03-25T17:13:38;9.50;74.90
11762;DHT22;5938;47.098;15.474;2024-03-25T17:17:44;9.30;76.70
11762;DHT22;5938;47.098;15.474;2024-03-25T17:21:46;9.00;79.20
11762;DHT22;5938;47.098;15.474;2024-03-25T17:25:48;8.60;78.60
11762;DHT22;5938;47.098;15.474;2024-03-25T17:29:49;8.40;80.00
11762;DHT22;5938;47.098;15.474;2024-03-25T17:33:52;8.20;81.90
11762;DHT22;5938;47.098;15.474;2024-03-25T17:37:54;8.00;81.70
11762;DHT22;5938;47.098;15.474;2024-03-25T17:41:55;7.70;81.50
11762;DHT22;5938;47.098;15.474;2024-03-25T17:45:57;7.40;83.50
11762;DHT22;5938;47.098;15.474;2024-03-25T17:50:00;7.10;83.90
11762;DHT22;5938;47.098;15.474;2024-03-25T17:54:03;7.00;83.40
11762;DHT22;5938;47.098;15.474;2024-03-25T17:58:04;6.90;82.80
11762;DHT22;5938;47.098;15.474;2024-03-25T18:02:06;6.90;83.60
11762;DHT22;5938;47.098;15.474;2024-03-25T18:06:09;6.80;85.10
11762;DHT22;5938;47.098;15.474;2024-03-25T18:10:10;6.70;85.60
11762;DHT22;5938;47.098;15.474;2024-03-25T18:14:12;6.90;85.30
11762;DHT22;5938;47.098;15.474;2024-03-25T18:18:14;6.90;84.70
11762;DHT22;5938;47.098;15.474;2024-03-25T18:22:17;6.90;83.80
11762;DHT22;5938;47.098;15.474;2024-03-25T18:26:19;6.80;85.60
11762;DHT22;5938;47.098;15.474;2024-03-25T18:30:21;6.80;86.00
11762;DHT22;5938;47.098;15.474;2024-03-25T18:34:22;6.90;85.70
11762;DHT22;5938;47.098;15.474;2024-03-25T18:38:26;6.80;85.20
11762;DHT22;5938;47.098;15.474;2024-03-25T18:42:28;6.80;85.60
11762;DHT22;5938;47.098;15.474;2024-03-25T18:46:30;6.80;85.10
11762;DHT22;5938;47.098;15.474;2024-03-25T18:50:33;6.70;85.60
11762;DHT22;5938;47.098;15.474;2024-03-25T18:54:37;6.60;86.30
11762;DHT22;5938;47.098;15.474;2024-03-25T18:58:40;6.60;87.50
11762;DHT22;5938;47.098;15.474;2024-03-25T19:02:41;6.50;87.10
11762;DHT22;5938;47.098;15.474;2024-03-25T19:06:43;6.50;87.00
11762;DHT22;5938;47.098;15.474;2024-03-25T19:10:47;6.50;86.10
11762;DHT22;5938;47.098;15.474;2024-03-25T19:14:49;6.40;87.70
11762;DHT22;5938;47.098;15.474;2024-03-25T19:18:52;6.50;86.40
11762;DHT22;5938;47.098;15.474;2024-03-25T19:22:54;6.40;86.70
11762;DHT22;5938;47.098;15.474;2024-03-25T19:26:57;6.20;87.40
11762;DHT22;5938;47.098;15.474;2024-03-25T19:31:00;6.20;87.70
11762;DHT22;5938;47.098;15.474;2024-03-25T19:35:02;6.20;87.00
11762;DHT22;5938;47.098;15.474;2024-03-25T19:39:04;6.10;87.70
11762;DHT22;5938;47.098;15.474;2024-03-25T19:43:07;6.00;87.70
11762;DHT22;5938;47.098;15.474;2024-03-25T19:47:10;5.80;88.70
11762;DHT22;5938;47.098;15.474;2024-03-25T19:51:12;5.80;88.50
11762;DHT22;5938;47.098;15.474;2024-03-25T19:55:15;5.70;88.70
11762;DHT22;5938;47.098;15.474;2024-03-25T19:59:19;5.60;89.60
11762;DHT22;5938;47.098;15.474;2024-03-25T20:03:22;5.70;89.60
11762;DHT22;5938;47.098;15.474;2024-03-25T20:07:27;5.70;89.60
11762;DHT22;5938;47.098;15.474;2024-03-25T20:11:30;5.60;89.50
11762;DHT22;5938;47.098;15.474;2024-03-25T20:15:36;5.60;89.50
11762;DHT22;5938;47.098;15.474;2024-03-25T20:19:39;5.60;89.50
11762;DHT22;5938;47.098;15.474;2024-03-25T20:23:43;5.60;89.90
11762;DHT22;5938;47.098;15.474;2024-03-25T20:27:49;5.50;89.70
11762;DHT22;5938;47.098;15.474;2024-03-25T20:31:53;5.50;90.10
11762;DHT22;5938;47.098;15.474;2024-03-25T20:35:55;5.50;90.40
11762;DHT22;5938;47.098;15.474;2024-03-25T20:40:30;5.40;90.70
11762;DHT22;5938;47.098;15.474;2024-03-25T20:44:53;5.40;90.70
11762;DHT22;5938;47.098;15.474;2024-03-25T20:49:00;5.30;90.90
11762;DHT22;5938;47.098;15.474;2024-03-25T20:53:04;5.20;91.20
11762;DHT22;5938;47.098;15.474;2024-03-25T20:57:07;5.10;91.30
11762;DHT22;5938;47.098;15.474;2024-03-25T21:01:12;5.10;91.00
11762;DHT22;5938;47.098;15.474;2024-03-25T21:05:23;5.20;91.20
11762;DHT22;5938;47.098;15.474;2024-03-25T21:09:41;5.40;90.70
11762;DHT22;5938;47.098;15.474;2024-03-25T21:13:45;5.60;90.50
11762;DHT22;5938;47.098;15.474;2024-03-25T21:17:49;5.60;90.70
11762;DHT22;5938;47.098;15.474;2024-03-25T21:21:59;5.50;90.70
11762;DHT22;5938;47.098;15.474;2024-03-25T21:26:01;5.30;91.10
11762;DHT22;5938;47.098;15.474;2024-03-25T21:30:06;5.20;91.50
11762;DHT22;5938;47.098;15.474;2024-03-25T21:34:17;5.00;91.50
11762;DHT22;5938;47.098;15.474;2024-03-25T21:38:27;4.80;91.80
11762;DHT22;5938;47.098;15.474;2024-03-25T21:42:35;4.80;91.70
11762;DHT22;5938;47.098;15.474;2024-03-25T21:46:37;4.80;91.70
11762;DHT22;5938;47.098;15.474;2024-03-25T21:50:45;4.80;91.60
11762;DHT22;5938;47.098;15.474;2024-03-25T21:54:55;4.70;91.80
11762;DHT22;5938;47.098;15.474;2024-03-25T21:58:57;4.80;91.90
11762;DHT22;5938;47.098;15.474;2024-03-25T22:13:31;4.80;91.60
11762;DHT22;5938;47.098;15.474;2024-03-25T22:17:33;4.60;91.90
11762;DHT22;5938;47.098;15.474;2024-03-25T22:21:34;4.50;92.10
11762;DHT22;5938;47.098;15.474;2024-03-25T22:25:36;4.40;92.00
11762;DHT22;5938;47.098;15.474;2024-03-25T22:29:38;4.30;92.30
11762;DHT22;5938;47.098;15.474;2024-03-25T22:33:40;4.10;93.40
11762;DHT22;5938;47.098;15.474;2024-03-25T22:37:43;4.00;93.00
11762;DHT22;5938;47.098;15.474;2024-03-25T22:41:44;3.90;93.40
11762;DHT22;5938;47.098;15.474;2024-03-25T22:45:54;3.70;93.90
11762;DHT22;5938;47.098;15.474;2024-03-25T22:49:56;3.60;94.20
11762;DHT22;5938;47.098;15.474;2024-03-25T22:53:57;3.50;94.80
11762;DHT22;5938;47.098;15.474;2024-03-25T22:57:58;3.40;95.50
11762;DHT22;5938;47.098;15.474;2024-03-25T23:02:01;3.30;95.40
11762;DHT22;5938;47.098;15.474;2024-03-25T23:06:04;3.20;95.80
11762;DHT22;5938;47.098;15.474;2024-03-25T23:10:06;3.10;96.50
11762;DHT22;5938;47.098;15.474;2024-03-25T23:14:08;3.00;97.10
11762;DHT22;5938;47.098;15.474;2024-03-25T23:18:11;2.80;97.20
11762;DHT22;5938;47.098;15.474;2024-03-25T23:22:12;2.70;97.60
11762;DHT22;5938;47.098;15.474;2024-03-25T23:26:13;2.60;97.80
11762;DHT22;5938;47.098;15.474;2024-03-25T23:30:15;2.50;98.70
11762;DHT22;5938;47.098;15.474;2024-03-25T23:34:18;2.40;98.90
11762;DHT22;5938;47.098;15.474;2024-03-25T23:38:19;2.40;99.10
11762;DHT22;5938;47.098;15.474;2024-03-25T23:42:21;2.30;99.10
11762;DHT22;5938;47.098;15.474;2024-03-25T23:46:22;2.20;99.20
11762;DHT22;5938;47.098;15.474;2024-03-25T23:50:25;2.20;99.80
11762;DHT22;5938;47.098;15.474;2024-03-25T23:54:27;2.10;99.90
11762;DHT22;5938;47.098;15.474;2024-03-25T23:58:28;2.10;99.90
